Time;durP1;ratioP1;P1;durP2;ratioP2;P2;SDS_P1;SDS_P2;PMS_P1;PMS_P2;Temp;Humidity;BMP_temperature;BMP_pressure;BME280_temperature;BME280_humidity;BME280_pressure;Samples;Min_cycle;Max_cycle;Signal;HPM_P1;HPM_P2
2023/06/04 00:01:23;;;;;;;5.43;1.50;;;17.30;53.90;;;;;;5049281;28;20482;-77
2023/06/04 00:03:51;;;;;;;7.10;1.70;;;17.20;54.00;;;;;;5050595;28;21281;-77
2023/06/04 00:06:19;;;;;;;13.50;2.33;;;17.20;54.10;;;;;;5048739;28;20507;-77
2023/06/04 00:08:47;;;;;;;4.33;1.43;;;17.10;54.40;;;;;;5050438;28;20728;-77
2023/06/04 00:11:15;;;;;;;6.10;1.87;;;17.00;54.50;;;;;;5044443;28;20466;-76
2023/06/04 00:13:45;;;;;;;5.13;1.80;;;17.00;54.70;;;;;;5047106;28;21234;-77
2023/06/04 00:16:13;;;;;;;5.70;1.87;;;17.00;54.90;;;;;;5050232;28;20856;-77
2023/06/04 00:18:41;;;;;;;7.70;1.80;;;16.90;55.00;;;;;;5049001;28;20465;-77
2023/06/04 00:21:09;;;;;;;5.60;1.80;;;16.90;55.10;;;;;;5049252;28;20450;-77
2023/06/04 00:23:37;;;;;;;5.37;2.00;;;16.90;55.20;;;;;;5048860;28;20468;-77
2023/06/04 00:26:05;;;;;;;7.30;1.60;;;16.80;55.30;;;;;;5050517;28;20525;-77
2023/06/04 00:28:33;;;;;;;5.77;1.50;;;16.80;55.40;;;;;;5051104;28;20494;-77
2023/06/04 00:31:05;;;;;;;7.70;2.53;;;16.70;55.40;;;;;;5047122;28;20506;-77
2023/06/04 00:33:35;;;;;;;6.60;1.43;;;16.70;55.50;;;;;;5058337;28;20568;-77
2023/06/04 00:36:03;;;;;;;6.17;1.97;;;16.60;55.60;;;;;;5057997;28;20547;-76
2023/06/04 00:38:31;;;;;;;6.40;1.60;;;16.60;55.70;;;;;;5045318;28;20574;-77
2023/06/04 00:41:00;;;;;;;5.20;1.50;;;16.60;55.70;;;;;;5044797;28;20480;-77
2023/06/04 00:43:28;;;;;;;6.77;1.97;;;16.60;55.80;;;;;;5047498;28;20471;-77
2023/06/04 00:45:56;;;;;;;5.50;1.80;;;16.50;55.80;;;;;;5048595;28;20565;-77
2023/06/04 00:48:27;;;;;;;4.93;1.63;;;16.50;56.00;;;;;;5063835;28;20530;-77
2023/06/04 00:50:55;;;;;;;7.40;1.80;;;16.40;56.10;;;;;;5052046;28;20524;-77
2023/06/04 00:53:25;;;;;;;6.00;2.10;;;16.30;56.10;;;;;;5049495;28;20521;-77
2023/06/04 00:55:53;;;;;;;5.37;1.80;;;16.30;56.30;;;;;;5065598;28;20476;-77
2023/06/04 00:58:21;;;;;;;5.47;2.00;;;16.20;56.40;;;;;;5049111;28;20470;-77
2023/06/04 01:00:50;;;;;;;4.63;1.63;;;16.10;56.50;;;;;;5042392;28;20498;-77
2023/06/04 01:03:23;;;;;;;4.73;1.60;;;16.10;56.60;;;;;;5065448;28;20473;-77
2023/06/04 01:06:01;;;;;;;7.37;2.33;;;16.00;56.70;;;;;;5057008;28;20519;-77
2023/06/04 01:08:30;;;;;;;6.33;2.03;;;16.00;56.80;;;;;;5066346;28;20459;-77
2023/06/04 01:10:59;;;;;;;5.57;2.07;;;15.90;56.80;;;;;;5048760;28;20581;-77
2023/06/04 01:13:28;;;;;;;5.40;2.27;;;15.80;56.80;;;;;;5051911;28;20534;-77
2023/06/04 01:15:56;;;;;;;5.37;1.90;;;15.80;57.00;;;;;;5048510;28;20446;-77
2023/06/04 01:18:28;;;;;;;4.60;1.67;;;15.70;57.00;;;;;;5058306;28;20575;-77
2023/06/04 01:21:01;;;;;;;5.37;2.00;;;15.70;57.10;;;;;;5056959;28;20496;-76
2023/06/04 01:23:39;;;;;;;5.77;2.10;;;15.60;57.20;;;;;;5050502;28;21061;-77
2023/06/04 01:26:10;;;;;;;6.67;1.77;;;15.60;57.30;;;;;;5054724;28;20456;-77
2023/06/04 01:28:38;;;;;;;8.53;2.27;;;15.60;57.30;;;;;;5054543;28;20465;-77
2023/06/04 01:31:08;;;;;;;5.10;1.50;;;15.60;57.40;;;;;;5051466;28;20477;-77
2023/06/04 01:33:37;;;;;;;7.03;1.90;;;15.50;57.50;;;;;;5042552;28;20479;-77
2023/06/04 01:36:10;;;;;;;5.77;2.23;;;15.50;57.50;;;;;;5053257;28;20484;-77
2023/06/04 01:38:38;;;;;;;5.60;2.37;;;15.40;57.70;;;;;;5049817;28;20922;-77
2023/06/04 01:41:06;;;;;;;5.93;2.10;;;15.40;57.70;;;;;;5049671;28;20472;-77
2023/06/04 01:43:35;;;;;;;5.77;2.17;;;15.40;57.80;;;;;;5047544;28;20456;-77
2023/06/04 01:46:04;;;;;;;5.70;1.67;;;15.40;57.80;;;;;;5051861;28;20474;-77
2023/06/04 01:48:33;;;;;;;5.20;1.80;;;15.30;57.90;;;;;;5068257;28;20899;-78
2023/06/04 01:51:01;;;;;;;4.60;1.83;;;15.30;58.00;;;;;;5049443;28;20462;-77
2023/06/04 01:53:32;;;;;;;9.07;2.20;;;15.30;58.00;;;;;;5051301;28;20814;-77
2023/06/04 01:56:01;;;;;;;6.27;1.73;;;15.30;58.10;;;;;;5064692;28;20473;-77
2023/06/04 01:58:29;;;;;;;4.50;2.00;;;15.30;58.20;;;;;;5052962;28;20465;-77
2023/06/04 02:00:59;;;;;;;4.83;1.80;;;15.20;58.20;;;;;;5050112;28;20677;-77
2023/06/04 02:03:28;;;;;;;4.80;1.90;;;15.20;58.30;;;;;;5049995;28;20891;-76
2023/06/04 02:05:56;;;;;;;4.90;1.97;;;15.20;58.30;;;;;;5048319;28;20514;-77
2023/06/04 02:08:25;;;;;;;6.50;1.90;;;15.20;58.30;;;;;;5046376;28;20684;-77
2023/06/04 02:10:54;;;;;;;6.63;2.00;;;15.10;58.50;;;;;;5050416;28;20472;-77
2023/06/04 02:13:22;;;;;;;5.57;2.00;;;15.00;58.60;;;;;;5044471;28;20490;-77
2023/06/04 02:15:51;;;;;;;4.70;2.10;;;15.00;58.70;;;;;;5048654;28;20520;-77
2023/06/04 02:18:22;;;;;;;6.20;1.77;;;14.90;58.70;;;;;;5049600;28;20850;-77
2023/06/04 02:20:51;;;;;;;5.63;1.57;;;14.80;58.80;;;;;;5050833;28;20478;-77
2023/06/04 02:23:20;;;;;;;6.67;2.13;;;14.80;58.90;;;;;;5050341;28;20577;-77
2023/06/04 02:25:49;;;;;;;4.90;1.87;;;14.70;59.00;;;;;;5049634;28;20482;-76
2023/06/04 02:28:19;;;;;;;4.93;1.73;;;14.70;59.00;;;;;;5046121;28;20699;-77
2023/06/04 02:30:48;;;;;;;4.67;1.80;;;14.70;59.20;;;;;;5065649;28;20522;-77
2023/06/04 02:33:16;;;;;;;6.43;2.40;;;14.60;59.10;;;;;;5050420;28;20878;-77
2023/06/04 02:35:44;;;;;;;4.60;1.80;;;14.60;59.20;;;;;;5062692;28;20577;-76
2023/06/04 02:38:13;;;;;;;5.87;2.23;;;14.60;59.30;;;;;;5050037;28;20476;-77
2023/06/04 02:40:40;;;;;;;5.10;1.87;;;14.50;59.30;;;;;;5054206;28;20470;-77
2023/06/04 02:43:09;;;;;;;4.80;1.90;;;14.50;59.40;;;;;;5050134;28;20910;-77
2023/06/04 02:45:38;;;;;;;5.70;2.47;;;14.40;59.30;;;;;;5035535;28;20470;-77
2023/06/04 02:48:06;;;;;;;6.00;1.93;;;14.30;59.60;;;;;;5039171;28;20470;-76
2023/06/04 02:50:35;;;;;;;5.97;2.23;;;14.20;59.60;;;;;;5033798;28;20816;-77
2023/06/04 02:53:02;;;;;;;5.73;2.30;;;14.20;59.70;;;;;;5050410;28;20500;-76
2023/06/04 02:55:30;;;;;;;5.27;2.00;;;14.10;59.80;;;;;;5062176;28;20485;-76
2023/06/04 02:57:58;;;;;;;4.97;2.03;;;14.10;59.90;;;;;;5048137;28;20463;-77
2023/06/04 03:00:27;;;;;;;5.43;2.20;;;14.10;60.00;;;;;;5048382;28;20796;-77
2023/06/04 03:03:01;;;;;;;5.43;1.80;;;14.10;60.10;;;;;;5045848;28;20506;-77
2023/06/04 03:05:30;;;;;;;4.97;1.60;;;14.10;60.20;;;;;;5027346;28;20484;-77
2023/06/04 03:07:59;;;;;;;6.30;2.23;;;14.20;60.20;;;;;;5029354;28;20462;-76
2023/06/04 03:10:27;;;;;;;7.23;1.97;;;14.10;60.10;;;;;;5062984;28;20478;-77
2023/06/04 03:12:55;;;;;;;8.10;2.20;;;14.10;60.10;;;;;;5029196;28;20466;-77
2023/06/04 03:15:24;;;;;;;5.37;2.00;;;14.00;60.20;;;;;;5050503;28;20501;-77
2023/06/04 03:17:52;;;;;;;4.40;1.90;;;14.00;60.10;;;;;;5049100;28;20462;-77
2023/06/04 03:20:24;;;;;;;5.20;2.40;;;13.90;60.20;;;;;;5032945;28;20485;-77
2023/06/04 03:22:52;;;;;;;11.00;2.27;;;13.80;60.30;;;;;;5031286;28;20552;-76
2023/06/04 03:25:20;;;;;;;4.80;1.90;;;13.80;60.50;;;;;;5028798;28;20540;-77
2023/06/04 03:27:48;;;;;;;5.40;1.83;;;13.80;60.50;;;;;;5029167;28;20485;-77
2023/06/04 03:30:17;;;;;;;5.27;1.97;;;13.80;60.60;;;;;;5030004;28;20454;-76
2023/06/04 03:33:14;;;;;;;6.40;1.90;;;13.80;60.60;;;;;;5034391;28;20525;-77
2023/06/04 03:35:43;;;;;;;4.13;1.43;;;13.80;60.60;;;;;;5037187;28;20494;-76
2023/06/04 03:38:11;;;;;;;6.93;2.20;;;13.70;60.70;;;;;;5052919;28;20958;-77
2023/06/04 03:40:40;;;;;;;4.90;1.90;;;13.70;60.70;;;;;;5033635;28;20550;-77
2023/06/04 03:43:10;;;;;;;7.53;2.70;;;13.60;60.80;;;;;;5027130;28;20459;-77
2023/06/04 03:45:38;;;;;;;4.70;1.90;;;13.60;60.90;;;;;;5029147;28;20467;-77
2023/06/04 03:48:07;;;;;;;5.27;1.57;;;13.70;61.00;;;;;;5028680;28;20450;-76
2023/06/04 03:50:37;;;;;;;6.10;1.73;;;13.70;61.00;;;;;;5044988;28;21135;-77
2023/06/04 03:53:06;;;;;;;4.90;1.73;;;13.70;61.10;;;;;;5056455;28;20487;-77
2023/06/04 03:55:34;;;;;;;4.83;1.73;;;13.80;61.00;;;;;;5057864;28;20491;-77
2023/06/04 03:58:04;;;;;;;6.77;1.97;;;13.80;61.00;;;;;;5034520;28;20461;-77
2023/06/04 04:00:33;;;;;;;6.10;2.20;;;13.80;61.00;;;;;;5034464;28;20470;-77
2023/06/04 04:03:03;;;;;;;6.23;1.70;;;13.90;61.10;;;;;;5045889;28;20945;-77
2023/06/04 04:05:32;;;;;;;6.53;2.03;;;13.90;61.10;;;;;;5056941;28;21269;-77
2023/06/04 04:08:00;;;;;;;5.37;1.60;;;14.00;61.20;;;;;;5033418;28;20530;-77
2023/06/04 04:10:32;;;;;;;6.37;2.20;;;14.10;61.10;;;;;;5033777;28;20472;-77
2023/06/04 04:13:00;;;;;;;6.73;2.20;;;14.10;61.10;;;;;;5048030;28;20459;-76
2023/06/04 04:15:32;;;;;;;6.10;2.13;;;14.20;61.10;;;;;;5061013;28;20510;-76
2023/06/04 04:18:02;;;;;;;6.80;2.27;;;14.20;61.10;;;;;;5033074;28;20554;-77
2023/06/04 04:20:30;;;;;;;5.57;1.97;;;14.20;61.00;;;;;;5038079;28;20485;-77
2023/06/04 04:23:03;;;;;;;5.93;2.07;;;14.30;61.00;;;;;;5058520;28;20711;-76
2023/06/04 04:25:33;;;;;;;4.43;1.70;;;14.30;61.10;;;;;;5038798;28;20462;-77
2023/06/04 04:28:06;;;;;;;5.90;1.77;;;14.40;61.20;;;;;;5048728;28;20471;-76
2023/06/04 04:30:35;;;;;;;7.90;2.00;;;14.50;61.00;;;;;;5036083;28;20525;-76
2023/06/04 04:33:06;;;;;;;5.97;1.73;;;14.60;60.90;;;;;;5043073;28;20991;-77
2023/06/04 04:35:39;;;;;;;7.47;1.80;;;14.70;61.00;;;;;;5037003;28;20577;-77
2023/06/04 04:38:10;;;;;;;4.40;1.70;;;14.80;61.10;;;;;;5053385;28;20458;-77
2023/06/04 04:40:47;;;;;;;6.47;1.97;;;15.00;61.10;;;;;;5050575;28;20467;-77
2023/06/04 04:43:16;;;;;;;6.30;1.70;;;15.20;61.00;;;;;;5065951;28;20722;-77
2023/06/04 04:45:44;;;;;;;4.33;1.50;;;15.30;61.00;;;;;;5049461;28;20472;-77
2023/06/04 04:48:12;;;;;;;5.40;1.93;;;15.50;60.90;;;;;;5051317;28;20476;-77
2023/06/04 04:50:40;;;;;;;5.17;2.20;;;15.60;60.90;;;;;;5049955;28;20464;-77
2023/06/04 04:53:09;;;;;;;5.33;2.10;;;15.80;60.90;;;;;;5034839;28;20473;-77
2023/06/04 04:55:38;;;;;;;4.80;1.50;;;15.90;60.90;;;;;;5044269;28;20479;-77
2023/06/04 04:58:14;;;;;;;5.73;2.10;;;16.10;60.70;;;;;;5034390;28;20470;-77
2023/06/04 05:00:43;;;;;;;5.27;2.00;;;16.30;60.60;;;;;;5030149;28;20570;-76
2023/06/04 05:03:11;;;;;;;5.20;2.10;;;16.40;60.60;;;;;;5056594;28;20474;-76
2023/06/04 05:05:39;;;;;;;4.87;1.83;;;16.60;60.50;;;;;;5057131;28;20481;-76
2023/06/04 05:08:08;;;;;;;4.63;1.60;;;16.80;60.30;;;;;;5068440;28;20451;-77
2023/06/04 05:10:40;;;;;;;4.10;1.70;;;16.90;60.30;;;;;;5070841;28;20470;-77
2023/06/04 05:13:11;;;;;;;4.50;1.60;;;17.10;60.10;;;;;;5053811;28;20458;-77
2023/06/04 05:15:48;;;;;;;5.10;1.60;;;17.20;59.90;;;;;;5054334;28;20759;-77
2023/06/04 05:18:20;;;;;;;10.00;1.50;;;17.40;59.70;;;;;;5069802;28;20540;-77
2023/06/04 05:20:49;;;;;;;7.03;1.93;;;17.60;59.80;;;;;;5068244;28;20447;-77
2023/06/04 05:23:17;;;;;;;5.27;1.77;;;17.70;60.10;;;;;;5051611;28;20459;-77
2023/06/04 05:25:50;;;;;;;5.10;1.80;;;17.90;60.30;;;;;;5067596;28;20562;-77
2023/06/04 05:28:20;;;;;;;4.37;1.50;;;18.10;60.60;;;;;;5065077;28;20778;-77
2023/06/04 05:30:49;;;;;;;4.40;1.47;;;18.30;60.80;;;;;;5048609;28;21097;-77
2023/06/04 05:33:18;;;;;;;5.30;1.50;;;18.60;61.10;;;;;;5063920;28;20465;-77
2023/06/04 05:35:57;;;;;;;4.40;1.60;;;19.10;60.80;;;;;;5065415;28;21359;-77
2023/06/04 05:38:30;;;;;;;5.70;1.77;;;20.00;59.20;;;;;;5060141;28;20458;-76
2023/06/04 05:41:02;;;;;;;4.27;1.40;;;21.10;57.30;;;;;;5048725;28;20478;-77
2023/06/04 05:43:34;;;;;;;6.00;1.77;;;22.10;55.50;;;;;;5043962;28;20471;-77
2023/06/04 05:46:06;;;;;;;4.30;1.50;;;22.90;53.50;;;;;;5056329;28;20570;-77
2023/06/04 05:48:34;;;;;;;5.70;1.40;;;23.50;52.60;;;;;;5064186;28;21088;-77
2023/06/04 05:51:02;;;;;;;5.90;1.60;;;24.00;51.50;;;;;;5063024;28;20474;-77
2023/06/04 05:53:30;;;;;;;5.57;1.67;;;24.40;50.20;;;;;;5053383;28;20453;-78
2023/06/04 05:55:58;;;;;;;4.00;1.37;;;24.50;49.60;;;;;;5050582;28;20553;-77
2023/06/04 05:58:26;;;;;;;7.27;2.20;;;24.60;48.60;;;;;;5049510;28;20463;-77
2023/06/04 06:00:54;;;;;;;4.77;1.10;;;24.60;48.20;;;;;;5065030;28;20473;-77
2023/06/04 06:03:23;;;;;;;6.20;1.70;;;24.80;47.50;;;;;;5050777;28;20490;-77
2023/06/04 06:05:51;;;;;;;4.77;1.27;;;25.10;47.00;;;;;;5043441;28;20452;-77
2023/06/04 06:08:20;;;;;;;5.17;1.80;;;;;;;;;;5049341;28;20681;-77
2023/06/04 06:10:48;;;;;;;6.27;1.83;;;25.40;46.00;;;;;;5045756;28;20462;-77
2023/06/04 06:13:16;;;;;;;5.40;2.10;;;25.10;45.70;;;;;;5061257;28;20455;-77
2023/06/04 06:15:48;;;;;;;5.23;1.80;;;24.50;45.90;;;;;;5049471;28;20494;-77
2023/06/04 06:18:16;;;;;;;4.90;1.50;;;24.00;46.00;;;;;;5048556;28;20882;-76
2023/06/04 06:20:45;;;;;;;6.37;2.17;;;23.30;46.30;;;;;;5050183;28;20598;-77
2023/06/04 06:23:14;;;;;;;4.73;2.00;;;22.60;46.70;;;;;;5048944;28;21024;-77
2023/06/04 06:25:45;;;;;;;6.40;1.97;;;22.20;47.10;;;;;;5048962;28;20722;-77
2023/06/04 06:28:21;;;;;;;5.13;1.73;;;21.70;47.20;;;;;;5048542;28;20454;-76
2023/06/04 06:30:50;;;;;;;4.10;1.47;;;21.10;47.60;;;;;;5045989;28;20479;-76
2023/06/04 06:33:21;;;;;;;6.50;1.97;;;20.60;48.10;;;;;;5045827;28;20470;-76
2023/06/04 06:35:51;;;;;;;9.17;2.07;;;20.20;48.50;;;;;;5047845;28;20502;-77
2023/06/04 06:38:18;;;;;;;9.30;2.30;;;19.70;49.00;;;;;;5049704;28;20525;-76
2023/06/04 06:40:47;;;;;;;5.70;1.83;;;19.50;49.40;;;;;;5049124;28;20459;-76
2023/06/04 06:43:15;;;;;;;5.67;1.90;;;19.30;49.70;;;;;;5049330;28;20494;-76
2023/06/04 06:45:43;;;;;;;5.53;1.90;;;19.20;49.90;;;;;;5046447;28;20841;-76
2023/06/04 06:48:11;;;;;;;10.33;2.30;;;19.20;50.00;;;;;;5052884;28;20457;-76
2023/06/04 06:50:39;;;;;;;7.40;2.17;;;19.10;50.20;;;;;;5052908;28;20467;-76
2023/06/04 06:53:08;;;;;;;4.57;1.60;;;19.10;50.50;;;;;;5052949;28;20446;-76
2023/06/04 06:55:36;;;;;;;5.67;2.53;;;19.00;50.70;;;;;;5052730;28;20454;-78
2023/06/04 06:58:04;;;;;;;4.70;1.57;;;18.90;51.00;;;;;;5051504;28;20493;-76
2023/06/04 07:00:33;;;;;;;9.53;2.07;;;18.90;51.20;;;;;;5049507;28;20510;-76
2023/06/04 07:03:01;;;;;;;5.50;1.60;;;19.00;51.30;;;;;;5049514;28;20465;-76
2023/06/04 07:05:31;;;;;;;5.57;2.10;;;18.90;51.30;;;;;;5050036;28;20474;-76
2023/06/04 07:08:00;;;;;;;5.10;2.07;;;18.90;51.20;;;;;;5044014;28;20498;-77
2023/06/04 07:10:30;;;;;;;5.73;2.33;;;18.90;51.10;;;;;;5050926;28;20439;-76
2023/06/04 07:12:58;;;;;;;6.23;2.10;;;19.00;51.20;;;;;;5047678;28;20561;-76
2023/06/04 07:15:26;;;;;;;6.40;1.83;;;19.10;51.20;;;;;;5054024;28;20553;-76
2023/06/04 07:17:54;;;;;;;7.23;2.30;;;19.10;51.20;;;;;;5052641;28;20568;-77
2023/06/04 07:20:22;;;;;;;12.33;1.80;;;19.20;51.10;;;;;;5064297;28;20808;-77
2023/06/04 07:22:50;;;;;;;6.10;1.90;;;19.30;51.00;;;;;;5045595;28;20464;-77
2023/06/04 07:25:18;;;;;;;5.53;1.97;;;19.30;51.00;;;;;;5052096;28;20457;-76
2023/06/04 07:27:50;;;;;;;5.87;2.17;;;19.40;51.00;;;;;;5051411;28;20526;-76
2023/06/04 07:30:18;;;;;;;5.10;1.83;;;19.50;51.20;;;;;;5052610;28;20462;-77
2023/06/04 07:32:48;;;;;;;7.37;2.00;;;19.50;51.00;;;;;;5050896;28;20551;-76
2023/06/04 07:35:16;;;;;;;4.93;1.70;;;19.60;50.90;;;;;;5049833;28;20497;-77
2023/06/04 07:37:47;;;;;;;5.90;2.30;;;19.60;50.90;;;;;;5049250;28;21076;-77
2023/06/04 07:40:15;;;;;;;5.10;2.00;;;19.60;50.70;;;;;;5051510;28;20448;-77
2023/06/04 07:42:44;;;;;;;6.13;2.27;;;19.70;50.60;;;;;;5061664;28;21099;-76
2023/06/04 07:45:13;;;;;;;6.17;2.33;;;19.70;50.70;;;;;;5051850;28;20464;-77
2023/06/04 07:47:41;;;;;;;6.47;2.00;;;19.70;50.60;;;;;;5051473;28;20813;-76
2023/06/04 07:50:10;;;;;;;10.70;2.63;;;19.70;50.70;;;;;;5051590;28;21115;-77
2023/06/04 07:52:38;;;;;;;5.10;1.73;;;19.70;50.60;;;;;;5052285;28;20458;-77
2023/06/04 07:55:08;;;;;;;6.87;2.33;;;19.70;50.60;;;;;;5051045;28;20537;-77
2023/06/04 07:57:36;;;;;;;6.10;2.10;;;19.80;50.50;;;;;;5050884;28;20511;-77
2023/06/04 08:00:05;;;;;;;5.07;1.87;;;19.80;50.50;;;;;;5067944;28;20537;-77
2023/06/04 08:02:40;;;;;;;5.67;1.70;;;19.90;50.50;;;;;;5049761;28;20523;-77
2023/06/04 08:05:08;;;;;;;8.60;2.23;;;19.90;50.50;;;;;;5048544;28;20430;-77
2023/06/04 08:07:37;;;;;;;7.30;2.13;;;20.00;50.60;;;;;;5050469;28;20457;-77
2023/06/04 08:10:06;;;;;;;10.83;2.10;;;20.00;50.60;;;;;;5050140;28;20488;-77
2023/06/04 08:12:34;;;;;;;7.87;2.00;;;20.00;50.50;;;;;;5046845;28;20553;-77
2023/06/04 08:15:02;;;;;;;6.10;2.27;;;20.10;50.60;;;;;;5053036;28;20532;-76
2023/06/04 08:17:30;;;;;;;7.10;1.67;;;20.10;50.50;;;;;;5054446;28;20903;-77
2023/06/04 08:19:59;;;;;;;11.10;2.57;;;20.10;50.50;;;;;;5049885;28;20468;-77
2023/06/04 08:22:29;;;;;;;5.57;1.90;;;20.20;50.50;;;;;;5037399;28;20501;-77
2023/06/04 08:24:56;;;;;;;7.83;1.97;;;20.20;50.50;;;;;;5049650;28;20546;-76
2023/06/04 08:27:24;;;;;;;5.87;1.80;;;20.20;50.50;;;;;;5040309;28;20641;-77
2023/06/04 08:29:52;;;;;;;7.87;2.20;;;20.20;50.60;;;;;;5025712;28;20535;-76
2023/06/04 08:32:21;;;;;;;7.13;2.13;;;20.20;50.40;;;;;;5049021;28;20486;-76
2023/06/04 08:34:49;;;;;;;5.80;2.23;;;20.20;50.60;;;;;;5060778;28;20477;-77
2023/06/04 08:37:19;;;;;;;8.87;2.23;;;20.30;50.60;;;;;;5050238;28;20542;-77
2023/06/04 08:39:47;;;;;;;7.37;1.80;;;20.20;50.70;;;;;;5068623;28;20569;-76
2023/06/04 08:42:22;;;;;;;5.80;1.87;;;20.20;50.70;;;;;;5043653;28;20936;-77
2023/06/04 08:44:52;;;;;;;6.50;2.37;;;20.30;50.60;;;;;;5052105;28;20458;-77
2023/06/04 08:47:20;;;;;;;5.90;1.93;;;20.40;50.40;;;;;;5049709;28;20762;-76
2023/06/04 08:49:51;;;;;;;5.80;2.23;;;20.40;50.50;;;;;;5050140;28;20506;-77
2023/06/04 08:52:21;;;;;;;4.70;2.00;;;20.40;50.40;;;;;;5035032;28;20475;-77
2023/06/04 08:54:51;;;;;;;6.20;2.30;;;20.50;50.40;;;;;;5049783;28;20485;-77
2023/06/04 08:57:19;;;;;;;5.90;2.40;;;20.60;50.40;;;;;;5049146;28;20550;-77
2023/06/04 08:59:48;;;;;;;6.73;1.97;;;20.60;50.40;;;;;;5050794;28;20531;-77
2023/06/04 09:02:17;;;;;;;4.53;1.83;;;20.70;50.30;;;;;;5048543;28;20591;-77
2023/06/04 09:04:45;;;;;;;5.50;1.70;;;20.80;50.20;;;;;;5051154;28;20458;-76
2023/06/04 09:07:15;;;;;;;4.50;1.73;;;20.90;50.20;;;;;;5033661;28;20475;-77
2023/06/04 09:09:47;;;;;;;12.50;2.10;;;21.00;49.90;;;;;;5046672;28;21149;-77
2023/06/04 09:12:29;;;;;;;6.67;1.80;;;21.10;49.70;;;;;;5053979;28;20667;-78
2023/06/04 09:15:00;;;;;;;12.00;2.10;;;21.10;49.70;;;;;;5054910;28;21350;-76
2023/06/04 09:17:29;;;;;;;5.50;2.20;;;21.20;49.30;;;;;;5049666;28;20438;-76
2023/06/04 09:19:57;;;;;;;6.67;1.77;;;21.30;49.00;;;;;;5050234;28;21337;-77
2023/06/04 09:22:33;;;;;;;6.20;1.60;;;21.30;48.70;;;;;;5049023;28;20485;-77
2023/06/04 09:25:05;;;;;;;5.30;1.80;;;21.30;48.60;;;;;;5050619;28;20469;-77
2023/06/04 09:27:39;;;;;;;4.63;1.70;;;21.30;48.60;;;;;;5051628;28;20927;-77
2023/06/04 09:30:09;;;;;;;7.73;1.90;;;21.40;48.60;;;;;;5050447;28;20521;-76
2023/06/04 09:32:37;;;;;;;8.00;2.23;;;21.40;48.40;;;;;;5032286;28;21053;-77
2023/06/04 09:35:13;;;;;;;5.40;2.17;;;21.40;48.10;;;;;;5055903;28;20796;-77
2023/06/04 09:37:42;;;;;;;9.33;1.90;;;21.50;47.90;;;;;;5061007;28;20449;-77
2023/06/04 09:40:12;;;;;;;7.57;1.90;;;21.60;48.00;;;;;;5053589;28;20465;-77
2023/06/04 09:42:44;;;;;;;5.50;1.83;;;21.70;47.80;;;;;;5027715;28;20467;-77
2023/06/04 09:45:13;;;;;;;6.13;1.97;;;21.70;47.60;;;;;;5054500;28;20450;-77
2023/06/04 09:47:42;;;;;;;5.43;1.87;;;21.80;47.70;;;;;;5053447;28;20518;-77
2023/06/04 09:50:12;;;;;;;7.83;2.10;;;21.80;47.60;;;;;;5054491;28;20952;-77
2023/06/04 09:52:40;;;;;;;6.20;2.20;;;21.90;47.50;;;;;;5054184;28;20453;-76
2023/06/04 09:55:20;;;;;;;7.47;1.93;;;21.90;47.50;;;;;;5031577;28;20469;-78
2023/06/04 09:57:49;;;;;;;9.60;3.70;;;21.90;47.40;;;;;;5046835;28;20497;-77
2023/06/04 10:00:19;;;;;;;6.93;2.43;;;21.90;47.40;;;;;;5053148;28;20459;-77
2023/06/04 10:02:48;;;;;;;9.33;2.00;;;21.90;47.00;;;;;;5053869;28;20485;-77
2023/06/04 10:05:19;;;;;;;4.57;1.40;;;21.90;46.40;;;;;;5052729;28;20977;-77
2023/06/04 10:07:47;;;;;;;5.60;1.77;;;22.00;46.20;;;;;;5054900;28;20750;-77
2023/06/04 10:10:17;;;;;;;8.10;2.17;;;22.00;46.20;;;;;;5035447;28;20458;-76
2023/06/04 10:12:49;;;;;;;5.27;1.63;;;22.10;46.20;;;;;;5051787;28;20554;-77
2023/06/04 10:15:19;;;;;;;6.30;2.30;;;22.10;45.80;;;;;;5051028;28;20461;-77
2023/06/04 10:17:49;;;;;;;8.83;1.97;;;22.10;45.70;;;;;;5051376;28;20500;-77
2023/06/04 10:20:20;;;;;;;4.57;1.73;;;22.20;45.80;;;;;;5050827;28;20486;-76
2023/06/04 10:22:49;;;;;;;5.07;1.90;;;22.20;46.00;;;;;;5032131;28;20546;-77
2023/06/04 10:25:19;;;;;;;6.53;1.93;;;22.30;46.00;;;;;;5053657;28;20457;-77
2023/06/04 10:27:49;;;;;;;5.30;1.83;;;22.30;45.70;;;;;;5049554;28;20459;-76
2023/06/04 10:30:17;;;;;;;12.23;2.30;;;22.40;45.60;;;;;;5049989;28;20991;-77
2023/06/04 10:32:45;;;;;;;8.60;1.93;;;22.30;45.70;;;;;;5059925;28;20614;-77
2023/06/04 10:35:14;;;;;;;5.53;2.07;;;22.40;45.40;;;;;;5049524;28;20471;-77
2023/06/04 10:37:42;;;;;;;5.20;1.87;;;22.40;45.40;;;;;;5051203;28;20888;-76
2023/06/04 10:40:11;;;;;;;5.40;1.73;;;22.40;45.10;;;;;;5049945;28;20505;-76
2023/06/04 10:42:43;;;;;;;5.70;1.83;;;22.50;45.00;;;;;;5041653;28;20596;-76
2023/06/04 10:45:12;;;;;;;5.60;1.60;;;22.50;45.00;;;;;;5051438;28;20549;-76
2023/06/04 10:47:40;;;;;;;8.83;2.83;;;22.50;45.10;;;;;;5049400;28;20455;-76
2023/06/04 10:50:11;;;;;;;6.47;2.07;;;22.50;45.20;;;;;;5052057;28;20473;-75
2023/06/04 10:52:51;;;;;;;5.83;2.13;;;22.50;45.00;;;;;;5045949;28;20470;-77
2023/06/04 10:55:19;;;;;;;5.80;2.13;;;22.60;44.90;;;;;;5055703;28;20463;-77
2023/06/04 10:57:53;;;;;;;6.93;2.80;;;22.60;44.90;;;;;;5047864;28;20522;-77
2023/06/04 11:00:23;;;;;;;5.00;1.70;;;22.60;44.90;;;;;;5048550;28;20833;-77
2023/06/04 11:02:55;;;;;;;6.47;1.80;;;22.60;44.90;;;;;;5049370;28;20467;-76
2023/06/04 11:05:34;;;;;;;5.10;2.03;;;22.70;44.60;;;;;;5048576;28;20462;-77
2023/06/04 11:08:04;;;;;;;5.43;1.97;;;22.70;44.50;;;;;;5048479;28;20482;-77
2023/06/04 11:10:34;;;;;;;7.53;2.07;;;22.80;44.30;;;;;;5048127;28;21116;-76
2023/06/04 11:13:03;;;;;;;6.50;1.87;;;22.80;44.00;;;;;;5048326;28;20462;-78
2023/06/04 11:15:41;;;;;;;10.73;1.90;;;22.80;43.70;;;;;;5047768;28;20466;-77
2023/06/04 11:18:14;;;;;;;6.23;1.70;;;22.80;43.70;;;;;;5064027;28;20748;-77
2023/06/04 11:20:43;;;;;;;4.27;1.50;;;22.90;43.60;;;;;;5046512;28;20573;-76
2023/06/04 11:23:13;;;;;;;8.43;2.13;;;22.90;43.50;;;;;;5049194;28;20541;-77
2023/06/04 11:25:42;;;;;;;10.00;2.00;;;23.00;43.50;;;;;;5048692;28;20481;-76
2023/06/04 11:28:16;;;;;;;5.23;1.93;;;23.10;43.20;;;;;;5049654;28;20461;-76
2023/06/04 11:30:56;;;;;;;4.70;2.00;;;23.20;43.00;;;;;;5032684;28;20474;-77
2023/06/04 11:33:24;;;;;;;6.07;1.70;;;23.10;43.20;;;;;;5049018;28;20442;-76
2023/06/04 11:35:53;;;;;;;5.00;1.70;;;23.10;43.00;;;;;;5051049;28;20481;-76
2023/06/04 11:38:20;;;;;;;6.43;2.07;;;23.10;42.90;;;;;;5052405;28;20449;-77
2023/06/04 11:40:57;;;;;;;7.47;1.67;;;23.20;42.60;;;;;;5052156;28;20541;-76
2023/06/04 11:43:25;;;;;;;5.20;1.63;;;23.20;42.60;;;;;;5047555;28;20545;-77
2023/06/04 11:45:54;;;;;;;5.23;1.80;;;23.20;42.50;;;;;;5047774;28;20458;-77
2023/06/04 11:48:22;;;;;;;5.03;1.90;;;23.20;42.30;;;;;;5051291;28;21122;-77
2023/06/04 11:50:50;;;;;;;4.90;1.67;;;23.20;42.20;;;;;;5049948;28;20454;-77
2023/06/04 11:53:18;;;;;;;8.00;1.40;;;23.30;42.00;;;;;;5050324;28;20474;-77
2023/06/04 11:55:46;;;;;;;5.37;1.57;;;23.30;41.80;;;;;;5054975;28;20466;-76
2023/06/04 11:58:15;;;;;;;4.50;1.50;;;23.30;41.80;;;;;;5045701;28;20557;-77
2023/06/04 12:00:43;;;;;;;6.07;1.93;;;23.30;41.90;;;;;;5047127;28;20487;-77
2023/06/04 12:03:12;;;;;;;6.17;1.47;;;23.40;41.90;;;;;;5043901;28;20573;-77
2023/06/04 12:05:41;;;;;;;7.60;2.47;;;23.40;41.70;;;;;;5044197;28;21892;-77
2023/06/04 12:08:10;;;;;;;5.30;1.60;;;23.50;41.70;;;;;;5047529;28;20517;-76
2023/06/04 12:10:39;;;;;;;5.73;1.73;;;23.40;41.60;;;;;;5050043;28;20463;-77
2023/06/04 12:13:08;;;;;;;5.20;2.10;;;23.50;41.50;;;;;;5045091;28;20554;-77
2023/06/04 12:15:36;;;;;;;4.93;1.60;;;23.50;41.50;;;;;;5046347;28;20466;-77
2023/06/04 12:18:05;;;;;;;5.13;1.47;;;23.50;41.40;;;;;;5045866;28;20459;-77
2023/06/04 12:20:36;;;;;;;4.80;1.43;;;23.50;41.50;;;;;;5047559;28;20561;-77
2023/06/04 12:23:05;;;;;;;6.20;2.03;;;23.60;41.40;;;;;;5047119;28;20454;-77
2023/06/04 12:25:35;;;;;;;5.23;1.40;;;23.60;41.40;;;;;;5048679;28;20489;-77
2023/06/04 12:28:04;;;;;;;5.70;2.17;;;23.60;41.40;;;;;;5049508;28;20501;-77
2023/06/04 12:30:39;;;;;;;5.30;1.70;;;23.50;41.20;;;;;;5040854;28;20462;-77
2023/06/04 12:33:08;;;;;;;6.47;2.33;;;23.50;41.10;;;;;;5048458;28;20500;-76
2023/06/04 12:35:37;;;;;;;5.93;1.70;;;23.50;41.20;;;;;;5054006;28;20550;-77
2023/06/04 12:38:08;;;;;;;5.80;2.13;;;23.50;41.20;;;;;;5048959;28;20537;-77
2023/06/04 12:40:37;;;;;;;5.20;2.00;;;23.60;41.20;;;;;;5062354;28;20469;-77
2023/06/04 12:43:06;;;;;;;5.03;1.80;;;23.60;41.20;;;;;;5045047;28;20462;-76
2023/06/04 12:45:34;;;;;;;6.83;1.80;;;23.60;41.10;;;;;;5051087;28;20545;-77
2023/06/04 12:48:02;;;;;;;6.53;1.80;;;23.50;41.20;;;;;;5051278;28;20541;-77
2023/06/04 12:50:30;;;;;;;8.87;1.80;;;23.60;41.10;;;;;;5048636;28;20525;-77
2023/06/04 12:52:59;;;;;;;5.60;2.20;;;23.70;40.90;;;;;;5052928;28;20438;-77
2023/06/04 12:55:27;;;;;;;5.10;1.33;;;23.70;40.70;;;;;;5052209;28;20462;-77
2023/06/04 12:57:55;;;;;;;5.13;1.50;;;23.80;40.50;;;;;;5052869;28;20466;-77